Time;durP1;ratioP1;P1;durP2;ratioP2;P2;SDS_P1;SDS_P2;PMS_P1;PMS_P2;Temp;Humidity;BMP_temperature;BMP_pressure;BME280_temperature;BME280_humidity;BME280_pressure;Samples;Min_cycle;Max_cycle;Signal;HPM_P1;HPM_P2
2023/02/28 00:00:22;;;;;;;;;;;1.90;99.90;;;;;;6096650;23;19909;-83
2023/02/28 00:02:48;;;;;;;;;;;1.90;99.90;;;;;;6123707;23;20250;-84
2023/02/28 00:05:15;;;;;;;;;;;1.90;99.90;;;;;;6098367;23;20282;-84
2023/02/28 00:07:41;;;;;;;;;;;1.90;99.90;;;;;;6123542;23;19905;-87
2023/02/28 00:10:08;;;;;;;;;;;1.90;99.90;;;;;;6097769;23;19909;-87
2023/02/28 00:12:34;;;;;;;;;;;1.90;99.90;;;;;;6097448;23;19905;-88
2023/02/28 00:14:59;;;;;;;;;;;1.90;99.90;;;;;;6123780;23;19996;-86
2023/02/28 00:17:25;;;;;;;;;;;1.90;99.90;;;;;;6097976;23;19932;-87
2023/02/28 00:19:51;;;;;;;;;;;1.80;99.90;;;;;;6097327;23;19916;-86
2023/02/28 00:22:17;;;;;;;;;;;1.80;99.90;;;;;;6097396;23;19909;-86
2023/02/28 00:24:43;;;;;;;;;;;1.70;99.90;;;;;;6096299;23;19905;-86
2023/02/28 00:27:08;;;;;;;;;;;1.60;99.90;;;;;;6124089;23;20337;-84
2023/02/28 00:29:34;;;;;;;;;;;1.60;99.90;;;;;;6123933;23;19905;-86
2023/02/28 00:32:00;;;;;;;;;;;1.70;99.90;;;;;;6098159;23;19988;-85
2023/02/28 00:34:25;;;;;;;;;;;1.60;99.90;;;;;;6098102;23;19905;-86
2023/02/28 00:36:51;;;;;;;;;;;1.70;99.90;;;;;;6122725;23;19905;-87
2023/02/28 00:39:17;;;;;;;;;;;1.70;99.90;;;;;;6097512;23;20234;-84
2023/02/28 00:41:42;;;;;;;;;;;1.60;99.90;;;;;;6097605;23;19916;-86
2023/02/28 00:44:08;;;;;;;;;;;1.60;99.90;;;;;;6097495;23;20223;-85
2023/02/28 00:46:33;;;;;;;;;;;1.50;99.90;;;;;;6097891;23;20370;-86
2023/02/28 00:48:59;;;;;;;;;;;1.50;99.90;;;;;;6098349;23;19905;-84
2023/02/28 00:51:24;;;;;;;;;;;1.50;99.90;;;;;;6097548;23;19912;-86
2023/02/28 00:53:49;;;;;;;;;;;1.40;99.90;;;;;;6097743;23;19912;-85
2023/02/28 00:56:15;;;;;;;;;;;1.40;99.90;;;;;;6097795;23;19905;-84
2023/02/28 00:58:40;;;;;;;;;;;1.40;99.90;;;;;;6124038;23;19905;-87
2023/02/28 01:01:06;;;;;;;;;;;1.40;99.90;;;;;;6097136;23;19913;-86
2023/02/28 01:03:31;;;;;;;;;;;1.40;99.90;;;;;;6098245;23;19905;-86
2023/02/28 01:05:57;;;;;;;;;;;1.40;99.90;;;;;;6098316;23;19988;-86
2023/02/28 01:08:23;;;;;;;;;;;1.40;99.90;;;;;;6098511;23;19905;-87
2023/02/28 01:10:49;;;;;;;;;;;1.40;99.90;;;;;;6098965;23;20365;-86
2023/02/28 01:13:15;;;;;;;;;;;1.40;99.90;;;;;;6098934;23;20324;-86
2023/02/28 01:15:42;;;;;;;;;;;1.40;99.90;;;;;;6099272;23;19932;-87
2023/02/28 01:18:07;;;;;;;;;;;1.30;99.90;;;;;;6098036;23;19970;-87
2023/02/28 01:20:32;;;;;;;;;;;1.40;99.90;;;;;;6097934;23;20328;-85
2023/02/28 01:22:58;;;;;;;;;;;1.40;99.90;;;;;;6123013;23;19948;-85
2023/02/28 01:25:23;;;;;;;;;;;1.30;99.90;;;;;;6122427;23;19959;-85
2023/02/28 01:27:49;;;;;;;;;;;1.40;99.90;;;;;;6097939;23;19912;-86
2023/02/28 01:30:14;;;;;;;;;;;1.40;99.90;;;;;;6098472;23;19948;-85
2023/02/28 01:32:40;;;;;;;;;;;1.30;99.90;;;;;;6097957;23;19932;-85
2023/02/28 01:35:06;;;;;;;;;;;1.40;99.90;;;;;;6098383;23;20246;-87
2023/02/28 01:37:31;;;;;;;;;;;1.30;99.90;;;;;;6098871;23;19955;-85
2023/02/28 01:39:56;;;;;;;;;;;1.30;99.90;;;;;;6098594;23;20242;-85
2023/02/28 01:42:22;;;;;;;;;;;1.30;99.90;;;;;;6098659;23;19905;-86
2023/02/28 01:44:54;;;;;;;;;;;1.20;99.90;;;;;;6099675;23;19916;-85
2023/02/28 01:47:20;;;;;;;;;;;1.20;99.90;;;;;;6123311;23;19905;-86
2023/02/28 01:49:45;;;;;;;;;;;1.20;99.90;;;;;;6099313;23;19906;-86
2023/02/28 01:52:14;;;;;;;;;;;1.20;99.90;;;;;;6125386;23;19972;-86
2023/02/28 01:54:40;;;;;;;;;;;1.10;99.90;;;;;;6124733;23;19905;-86
2023/02/28 01:57:09;;;;;;;;;;;1.10;99.90;;;;;;6100728;23;19962;-87
2023/02/28 01:59:40;;;;;;;;;;;1.10;99.90;;;;;;6099139;23;19904;-86
2023/02/28 02:02:06;;;;;;;;;;;1.10;99.90;;;;;;6100286;23;19905;-87
2023/02/28 02:04:35;;;;;;;;;;;1.10;99.90;;;;;;6124142;23;19935;-87
2023/02/28 02:07:03;;;;;;;;;;;1.10;99.90;;;;;;6099638;23;20323;-86
2023/02/28 02:09:30;;;;;;;;;;;1.10;99.90;;;;;;6099469;23;19905;-88
2023/02/28 02:11:55;;;;;;;;;;;1.00;99.90;;;;;;6098704;23;19905;-85
2023/02/28 02:14:27;;;;;;;;;;;1.00;99.90;;;;;;6099855;23;20327;-84
2023/02/28 02:17:16;;;;;;;;;;;1.00;99.90;;;;;;6124071;23;19905;-87
2023/02/28 02:20:02;;;;;;;;;;;1.00;99.90;;;;;;6100513;23;19995;-86
2023/02/28 02:22:47;;;;;;;;;;;1.00;99.90;;;;;;6124512;23;19912;-85
2023/02/28 02:25:15;;;;;;;;;;;1.00;99.90;;;;;;6124515;23;19905;-87
2023/02/28 02:27:47;;;;;;;;;;;1.00;99.90;;;;;;6123833;23;19905;-87
2023/02/28 02:30:20;;;;;;;;;;;0.90;99.90;;;;;;6123594;23;20327;-88
2023/02/28 02:32:54;;;;;;;;;;;0.90;99.90;;;;;;6098993;23;19905;-87
2023/02/28 02:35:39;;;;;;;;;;;0.90;99.90;;;;;;6124585;22;19912;-85
2023/02/28 02:38:08;;;;;;;;;;;0.80;99.90;;;;;;6100180;23;19909;-87
2023/02/28 02:40:56;;;;;;;;;;;0.80;99.90;;;;;;6124006;23;19909;-87
2023/02/28 02:43:25;;;;;;;;;;;0.80;99.90;;;;;;6107206;23;19984;-86
2023/02/28 02:45:53;;;;;;;;;;;0.80;99.90;;;;;;6099398;23;19905;-88
2023/02/28 02:48:20;;;;;;;;;;;0.80;99.90;;;;;;6099338;23;20227;-87
2023/02/28 02:50:51;;;;;;;;;;;0.80;99.90;;;;;;6099389;23;19909;-84
2023/02/28 02:53:18;;;;;;;;;;;0.70;99.90;;;;;;6126126;23;19909;-84
2023/02/28 02:55:46;;;;;;;;;;;0.70;99.90;;;;;;6100358;23;19929;-87
2023/02/28 02:58:14;;;;;;;;;;;0.70;99.90;;;;;;6125893;23;19905;-88
2023/02/28 03:00:47;;;;;;;;;;;0.70;99.90;;;;;;6099005;23;19909;-87
2023/02/28 03:03:14;;;;;;;;;;;0.70;99.90;;;;;;6125267;23;19905;-85
2023/02/28 03:05:58;;;;;;;;;;;0.70;99.90;;;;;;6125441;23;19920;-85
2023/02/28 03:08:24;;;;;;;;;;;0.60;99.90;;;;;;6125747;23;19905;-87
2023/02/28 03:10:51;;;;;;;;;;;0.60;99.90;;;;;;6126226;23;19905;-85
2023/02/28 03:13:20;;;;;;;;;;;0.70;99.90;;;;;;6099957;23;19978;-85
2023/02/28 03:16:00;;;;;;;;;;;0.70;99.90;;;;;;6124870;23;19912;-86
2023/02/28 03:18:34;;;;;;;;;;;0.60;99.90;;;;;;6124431;23;19955;-87
2023/02/28 03:20:59;;;;;;;;;;;0.60;99.90;;;;;;6098980;23;19931;-86
2023/02/28 03:23:48;;;;;;;;;;;0.60;99.90;;;;;;6123634;23;20322;-85
2023/02/28 03:26:18;;;;;;;;;;;0.60;99.90;;;;;;6133455;23;19905;-85
2023/02/28 03:29:06;;;;;;;;;;;0.60;99.90;;;;;;6100435;23;19905;-87
2023/02/28 03:31:43;;;;;;;;;;;0.50;99.90;;;;;;6099419;23;20289;-86
2023/02/28 03:34:12;;;;;;;;;;;0.50;99.90;;;;;;6099423;23;19912;-87
2023/02/28 03:36:43;;;;;;;;;;;0.50;99.90;;;;;;6099835;23;20331;-85
2023/02/28 03:39:12;;;;;;;;;;;0.50;99.90;;;;;;6099073;23;19905;-89
2023/02/28 03:41:41;;;;;;;;;;;0.50;99.90;;;;;;6098728;23;19995;-86
2023/02/28 03:44:15;;;;;;;;;;;0.40;99.90;;;;;;6099472;23;20342;-87
2023/02/28 03:46:44;;;;;;;;;;;0.40;99.90;;;;;;6098638;23;19905;-87
2023/02/28 03:49:22;;;;;;;;;;;0.40;99.90;;;;;;6099072;23;19954;-88
2023/02/28 03:51:49;;;;;;;;;;;0.30;99.90;;;;;;6098837;23;19927;-86
2023/02/28 03:54:21;;;;;;;;;;;0.30;99.90;;;;;;6098240;23;20389;-88
2023/02/28 03:57:05;;;;;;;;;;;0.30;99.90;;;;;;6098854;23;19909;-87
2023/02/28 03:59:37;;;;;;;;;;;0.20;99.90;;;;;;6123583;23;20254;-86
2023/02/28 04:02:03;;;;;;;;;;;0.20;99.90;;;;;;6099802;23;19911;-87
2023/02/28 04:04:28;;;;;;;;;;;0.20;99.90;;;;;;6124606;23;20347;-86
2023/02/28 04:07:01;;;;;;;;;;;0.20;99.90;;;;;;6100452;23;19905;-87
2023/02/28 04:09:27;;;;;;;;;;;0.20;99.90;;;;;;6099058;23;19990;-87
2023/02/28 04:11:53;;;;;;;;;;;0.20;99.90;;;;;;6099261;23;19912;-87
2023/02/28 04:14:18;;;;;;;;;;;0.20;99.90;;;;;;6098753;23;19908;-85
2023/02/28 04:16:44;;;;;;;;;;;0.20;99.90;;;;;;6099664;23;19925;-88
2023/02/28 04:19:11;;;;;;;;;;;0.20;99.90;;;;;;6099768;23;19912;-87
2023/02/28 04:21:41;;;;;;;;;;;0.10;99.90;;;;;;6125263;23;19913;-84
2023/02/28 04:24:13;;;;;;;;;;;0.10;99.90;;;;;;6098645;23;19916;-88
2023/02/28 04:26:40;;;;;;;;;;;0.10;99.90;;;;;;6124665;23;20216;-85
2023/02/28 04:29:07;;;;;;;;;;;0.10;99.90;;;;;;6125223;23;19913;-87
2023/02/28 04:31:33;;;;;;;;;;;0.10;99.90;;;;;;6099281;23;19936;-86
2023/02/28 04:33:58;;;;;;;;;;;0.00;99.90;;;;;;6098902;23;19912;-86
2023/02/28 04:36:24;;;;;;;;;;;0.00;99.90;;;;;;6098183;23;19984;-87
2023/02/28 04:38:50;;;;;;;;;;;0.00;99.90;;;;;;6098447;23;19947;-87
2023/02/28 04:41:16;;;;;;;;;;;0.00;99.90;;;;;;6124559;23;19917;-85
2023/02/28 04:43:41;;;;;;;;;;;0.00;99.90;;;;;;6098459;23;19913;-86
2023/02/28 04:46:07;;;;;;;;;;;-0.10;99.90;;;;;;6098732;23;19905;-87
2023/02/28 04:48:34;;;;;;;;;;;-0.10;99.90;;;;;;6098622;23;19905;-87
2023/02/28 04:51:07;;;;;;;;;;;-0.10;99.90;;;;;;6124308;23;20282;-85
2023/02/28 04:53:32;;;;;;;;;;;-0.10;99.90;;;;;;6098197;23;19905;-86
2023/02/28 04:55:58;;;;;;;;;;;-0.10;99.90;;;;;;6098092;23;19911;-85
2023/02/28 04:58:24;;;;;;;;;;;-0.10;99.90;;;;;;6124684;23;19912;-87
2023/02/28 05:00:50;;;;;;;;;;;0.00;99.90;;;;;;6098167;23;19954;-88
2023/02/28 05:03:15;;;;;;;;;;;0.00;99.90;;;;;;6098204;23;19955;-87
2023/02/28 05:05:41;;;;;;;;;;;0.00;99.90;;;;;;6098867;23;19917;-87
2023/02/28 05:08:06;;;;;;;;;;;0.00;99.90;;;;;;6098500;23;19912;-87
2023/02/28 05:10:32;;;;;;;;;;;0.00;99.90;;;;;;6098989;23;19905;-86
2023/02/28 05:12:57;;;;;;;;;;;0.00;99.90;;;;;;6123457;23;19942;-87
2023/02/28 05:15:23;;;;;;;;;;;0.00;99.90;;;;;;6098733;23;20325;-85
2023/02/28 05:17:48;;;;;;;;;;;0.00;99.90;;;;;;6099398;23;19909;-86
2023/02/28 05:20:14;;;;;;;;;;;0.00;99.90;;;;;;6099017;23;19909;-84
2023/02/28 05:22:40;;;;;;;;;;;-0.10;99.90;;;;;;6098915;23;19958;-85
2023/02/28 05:25:06;;;;;;;;;;;-0.10;99.90;;;;;;6099260;23;19916;-88
2023/02/28 05:27:32;;;;;;;;;;;0.00;99.90;;;;;;6125120;23;19905;-86
2023/02/28 05:29:58;;;;;;;;;;;-0.10;99.90;;;;;;6098509;23;19911;-87
2023/02/28 05:32:24;;;;;;;;;;;-0.10;99.90;;;;;;6124308;23;19905;-86
2023/02/28 05:34:49;;;;;;;;;;;-0.20;99.90;;;;;;6099267;23;19928;-87
2023/02/28 05:37:15;;;;;;;;;;;-0.20;99.90;;;;;;6098817;23;20097;-86
2023/02/28 05:39:41;;;;;;;;;;;-0.20;99.90;;;;;;6122796;23;20232;-84
2023/02/28 05:42:06;;;;;;;;;;;-0.30;99.90;;;;;;6098383;23;20331;-87
2023/02/28 05:44:32;;;;;;;;;;;-0.30;99.90;;;;;;6098375;23;20397;-87
2023/02/28 05:46:57;;;;;;;;;;;-0.30;99.90;;;;;;6097857;23;19927;-87
2023/02/28 05:49:23;;;;;;;;;;;-0.30;99.90;;;;;;6098001;23;20326;-85
2023/02/28 05:51:48;;;;;;;;;;;-0.40;99.90;;;;;;6097586;23;19916;-87
2023/02/28 05:54:14;;;;;;;;;;;-0.40;99.90;;;;;;6124310;23;20266;-86
2023/02/28 05:56:40;;;;;;;;;;;-0.40;99.90;;;;;;6123951;23;20238;-86
2023/02/28 05:59:06;;;;;;;;;;;-0.40;99.90;;;;;;6098111;23;19909;-85
2023/02/28 06:01:36;;;;;;;;;;;-0.40;99.90;;;;;;6098429;23;20051;-85
2023/02/28 06:04:02;;;;;;;;;;;-0.40;99.90;;;;;;6098076;23;19928;-85
2023/02/28 06:06:29;;;;;;;;;;;-0.40;99.90;;;;;;6194082;23;20003;-79
2023/02/28 06:08:55;;;;;;;;;;;-0.40;99.90;;;;;;6213177;23;20014;-80
2023/02/28 06:11:20;;;;;;;;;;;-0.40;99.90;;;;;;6214620;23;20321;-80
2023/02/28 06:13:46;;;;;;;;;;;-0.30;99.90;;;;;;6214796;23;19911;-80
2023/02/28 06:16:12;;;;;;;;;;;-0.30;99.90;;;;;;6212582;23;19911;-79
2023/02/28 06:18:37;;;;;;;;;;;-0.30;99.90;;;;;;6214585;23;19904;-79
2023/02/28 06:21:03;;;;;;;;;;;-0.30;99.90;;;;;;6214152;23;19912;-79
2023/02/28 06:23:28;;;;;;;;;;;-0.30;99.90;;;;;;6215732;23;19904;-79
2023/02/28 06:25:57;;;;;;;;;;;-0.30;99.90;;;;;;6239960;22;19903;-79
2023/02/28 06:28:24;;;;;;;;;;;-0.20;99.90;;;;;;6240127;23;19904;-79
2023/02/28 06:30:49;;;;;;;;;;;-0.20;99.90;;;;;;6216355;23;19911;-79
2023/02/28 06:33:15;;;;;;;;;;;-0.20;99.90;;;;;;6215910;23;19904;-80
2023/02/28 06:35:43;;;;;;;;;;;-0.20;99.90;;;;;;6215966;23;19911;-79
2023/02/28 06:38:08;;;;;;;;;;;-0.10;99.90;;;;;;6215995;23;19987;-79
2023/02/28 06:40:35;;;;;;;;;;;-0.10;99.90;;;;;;6216439;23;20314;-79
2023/02/28 06:43:01;;;;;;;;;;;-0.10;99.90;;;;;;6216109;23;19926;-79
2023/02/28 06:45:26;;;;;;;;;;;0.00;99.90;;;;;;6216616;23;20361;-80
2023/02/28 06:47:51;;;;;;;;;;;0.00;99.90;;;;;;6216168;23;19907;-79
2023/02/28 06:50:20;;;;;;;;;;;0.00;99.90;;;;;;6215931;23;19962;-79
2023/02/28 06:52:46;;;;;;;;;;;0.00;99.90;;;;;;6215946;23;20055;-79
2023/02/28 06:55:11;;;;;;;;;;;0.10;99.90;;;;;;6216345;23;19908;-79
2023/02/28 06:57:37;;;;;;;;;;;0.10;99.90;;;;;;6216579;23;19908;-79
2023/02/28 07:00:04;;;;;;;;;;;0.20;99.90;;;;;;6216130;23;19987;-80
2023/02/28 07:02:31;;;;;;;;;;;0.20;99.90;;;;;;6239497;23;20322;-79
2023/02/28 07:04:56;;;;;;;;;;;0.30;99.90;;;;;;6190305;23;19909;-79
2023/02/28 07:07:22;;;;;;;;;;;0.40;99.90;;;;;;6093026;23;19909;-79
2023/02/28 07:09:47;;;;;;;;;;;0.40;99.90;;;;;;6092873;23;19947;-79
2023/02/28 07:12:13;;;;;;;;;;;0.50;99.90;;;;;;6091875;23;19905;-79
2023/02/28 07:14:38;;;;;;;;;;;0.50;99.90;;;;;;6092590;23;19905;-79
2023/02/28 07:17:06;;;;;;;;;;;0.60;99.90;;;;;;6092668;23;19981;-79
2023/02/28 07:19:31;;;;;;;;;;;0.60;99.90;;;;;;6091061;23;19905;-79
2023/02/28 07:21:57;;;;;;;;;;;0.70;99.90;;;;;;6092543;23;19912;-79
2023/02/28 07:24:25;;;;;;;;;;;0.70;99.90;;;;;;6092814;23;20290;-80
2023/02/28 07:26:51;;;;;;;;;;;0.80;99.90;;;;;;6092596;23;20367;-79
2023/02/28 07:29:16;;;;;;;;;;;0.80;99.90;;;;;;6092674;23;19909;-79
2023/02/28 07:31:41;;;;;;;;;;;0.90;99.90;;;;;;6092435;23;20224;-80
2023/02/28 07:34:07;;;;;;;;;;;0.90;99.90;;;;;;6092862;23;19955;-80
2023/02/28 07:36:32;;;;;;;;;;;1.00;99.90;;;;;;6092825;23;19905;-80
2023/02/28 07:38:58;;;;;;;;;;;1.10;99.90;;;;;;6115464;23;20219;-80
2023/02/28 07:41:27;;;;;;;;;;;1.10;99.90;;;;;;6092265;23;19906;-79
2023/02/28 07:43:57;;;;;;;;;;;1.20;99.90;;;;;;6092631;23;20358;-79
2023/02/28 07:46:22;;;;;;;;;;;1.20;99.90;;;;;;6115181;23;20327;-80
2023/02/28 07:48:48;;;;;;;;;;;1.30;99.90;;;;;;6092872;23;19905;-80
2023/02/28 07:51:13;;;;;;;;;;;1.40;99.90;;;;;;6090599;23;19909;-80
2023/02/28 07:53:39;;;;;;;;;;;1.50;99.90;;;;;;6092775;23;20338;-80
2023/02/28 07:56:05;;;;;;;;;;;1.50;99.90;;;;;;6091993;23;19935;-80
2023/02/28 07:58:30;;;;;;;;;;;1.70;99.90;;;;;;6092880;23;19905;-79
2023/02/28 08:00:56;;;;;;;;;;;1.70;99.90;;;;;;6092625;23;19905;-80
2023/02/28 08:03:22;;;;;;;;;;;1.80;99.90;;;;;;6116998;23;19988;-79
2023/02/28 08:05:48;;;;;;;;;;;1.90;99.90;;;;;;6092890;23;19959;-79
2023/02/28 08:08:14;;;;;;;;;;;2.00;99.90;;;;;;6093278;23;20318;-79
2023/02/28 08:10:40;;;;;;;;;;;2.00;99.90;;;;;;6091568;23;19909;-79
2023/02/28 08:13:06;;;;;;;;;;;2.20;99.90;;;;;;6092291;23;20005;-79
2023/02/28 08:15:31;;;;;;;;;;;2.30;99.90;;;;;;6092759;23;19960;-79
2023/02/28 08:17:57;;;;;;;;;;;2.40;99.90;;;;;;6092835;23;19917;-80
2023/02/28 08:20:23;;;;;;;;;;;2.50;99.90;;;;;;6092980;23;19911;-79
2023/02/28 08:22:49;;;;;;;;;;;2.60;99.90;;;;;;6093173;23;20345;-80
2023/02/28 08:25:14;;;;;;;;;;;2.70;99.90;;;;;;6093342;23;19933;-80
2023/02/28 08:27:40;;;;;;;;;;;2.80;99.90;;;;;;6093310;23;19925;-80
2023/02/28 08:30:06;;;;;;;;;;;2.90;99.90;;;;;;6093224;23;19913;-79
2023/02/28 08:32:32;;;;;;;;;;;3.00;99.90;;;;;;6092258;23;20297;-78
2023/02/28 08:34:58;;;;;;;;;;;3.10;99.90;;;;;;6092822;23;19913;-79
2023/02/28 08:37:23;;;;;;;;;;;3.20;99.90;;;;;;6115096;23;20323;-80
2023/02/28 08:39:49;;;;;;;;;;;3.30;99.90;;;;;;6092564;23;19979;-81
2023/02/28 08:42:14;;;;;;;;;;;3.40;99.90;;;;;;6092945;23;19955;-79
2023/02/28 08:44:40;;;;;;;;;;;3.50;99.90;;;;;;6092543;23;19909;-79
2023/02/28 08:47:06;;;;;;;;;;;3.60;99.90;;;;;;6092588;23;19906;-79
2023/02/28 08:49:31;;;;;;;;;;;3.60;99.90;;;;;;6093005;23;19971;-80
2023/02/28 08:51:57;;;;;;;;;;;3.60;99.90;;;;;;6092083;23;20331;-79
2023/02/28 08:54:23;;;;;;;;;;;3.70;99.90;;;;;;6115261;23;19906;-79
2023/02/28 08:56:48;;;;;;;;;;;3.80;98.50;;;;;;6092474;23;19912;-79
2023/02/28 08:59:14;;;;;;;;;;;3.80;98.20;;;;;;6115157;23;19933;-80
2023/02/28 09:01:41;;;;;;;;;;;3.90;95.80;;;;;;6090638;23;19905;-80
2023/02/28 09:04:08;;;;;;;;;;;4.00;94.00;;;;;;6115586;23;19913;-79
2023/02/28 09:06:34;;;;;;;;;;;4.00;93.20;;;;;;6092909;23;19913;-80
2023/02/28 09:09:00;;;;;;;;;;;4.10;91.10;;;;;;6092720;23;19912;-80
2023/02/28 09:11:26;;;;;;;;;;;4.20;90.00;;;;;;6091811;23;19940;-79
2023/02/28 09:13:52;;;;;;;;;;;4.30;89.40;;;;;;6114731;23;20350;-79
2023/02/28 09:16:17;;;;;;;;;;;4.40;86.30;;;;;;6091800;23;19959;-79
2023/02/28 09:18:43;;;;;;;;;;;4.40;85.80;;;;;;6114859;23;19905;-79
2023/02/28 09:21:11;;;;;;;;;;;4.50;86.10;;;;;;6091756;23;19905;-79
2023/02/28 09:23:38;;;;;;;;;;;4.60;84.00;;;;;;6092052;23;19909;-80
2023/02/28 09:26:03;;;;;;;;;;;4.60;84.30;;;;;;6091911;23;19906;-79
2023/02/28 09:28:29;;;;;;;;;;;4.60;82.40;;;;;;6091955;23;19906;-79
2023/02/28 09:30:54;;;;;;;;;;;4.70;82.00;;;;;;6091775;23;19960;-79
2023/02/28 09:33:20;;;;;;;;;;;4.70;82.00;;;;;;6091792;23;19905;-80
2023/02/28 09:35:49;;;;;;;;;;;4.80;81.90;;;;;;6092040;23;20093;-79
2023/02/28 09:38:15;;;;;;;;;;;4.90;84.20;;;;;;6092233;23;20320;-80
2023/02/28 09:40:49;;;;;;;;;;;5.00;82.70;;;;;;6092059;23;19912;-78
2023/02/28 09:43:17;;;;;;;;;;;5.00;85.20;;;;;;6091781;23;19913;-79
2023/02/28 09:45:46;;;;;;;;;;;5.10;82.70;;;;;;6090411;23;20295;-79
2023/02/28 09:48:15;;;;;;;;;;;5.10;78.90;;;;;;6091818;23;19910;-80
2023/02/28 09:50:44;;;;;;;;;;;5.20;79.90;;;;;;6092168;23;19949;-80
2023/02/28 09:53:15;;;;;;;;;;;5.30;81.10;;;;;;6091941;23;19975;-79
2023/02/28 09:56:01;;;;;;;;;;;5.40;83.10;;;;;;6091923;23;20330;-79
2023/02/28 09:58:47;;;;;;;;;;;5.40;81.70;;;;;;6093518;23;19909;-80
2023/02/28 10:01:23;;;;;;;;;;;5.50;82.20;;;;;;6093232;23;19928;-81
2023/02/28 10:03:55;;;;;;;;;;;5.50;81.20;;;;;;6092906;23;19905;-80
2023/02/28 10:06:22;;;;;;;;;;;5.50;81.70;;;;;;6093122;23;19914;-80
2023/02/28 10:09:03;;;;;;;;;;;5.50;83.10;;;;;;6093128;23;19929;-81
2023/02/28 10:11:30;;;;;;;;;;;5.60;82.80;;;;;;6092978;23;19919;-80
2023/02/28 10:14:00;;;;;;;;;;;5.70;81.80;;;;;;6093476;23;20495;-80
2023/02/28 10:16:38;;;;;;;;;;;5.80;81.00;;;;;;6093807;23;19989;-81
2023/02/28 10:19:14;;;;;;;;;;;5.90;80.70;;;;;;6093217;23;20323;-80
2023/02/28 10:21:47;;;;;;;;;;;6.10;79.80;;;;;;6093736;23;19905;-81
2023/02/28 10:24:20;;;;;;;;;;;6.10;79.60;;;;;;6093155;23;20253;-81
2023/02/28 10:26:47;;;;;;;;;;;6.20;78.50;;;;;;6092781;23;19905;-80
2023/02/28 10:29:12;;;;;;;;;;;6.40;80.00;;;;;;6092875;23;20351;-80
2023/02/28 10:31:38;;;;;;;;;;;6.50;77.80;;;;;;6092634;23;19984;-80
2023/02/28 10:34:05;;;;;;;;;;;6.70;79.50;;;;;;6093288;23;19990;-80
2023/02/28 10:36:31;;;;;;;;;;;6.70;76.10;;;;;;6092775;23;20331;-79
2023/02/28 10:38:57;;;;;;;;;;;7.30;76.40;;;;;;6092753;23;19913;-81
2023/02/28 10:41:26;;;;;;;;;;;9.30;74.50;;;;;;6090334;23;19914;-80
2023/02/28 10:43:52;;;;;;;;;;;12.10;65.00;;;;;;6089942;23;19909;-79
2023/02/28 10:46:25;;;;;;;;;;;14.90;54.80;;;;;;6091223;23;20012;-80
2023/02/28 10:49:12;;;;;;;;;;;17.20;99.90;;;;;;6091443;23;20350;-80
2023/02/28 10:51:38;;;;;;;;;;;18.70;99.90;;;;;;6091832;23;19913;-81
2023/02/28 10:54:05;;;;;;;;;;;20.30;99.90;;;;;;6092806;23;19912;-79
2023/02/28 10:56:30;;;;;;;;;;;21.50;99.90;;;;;;6090535;23;19905;-79
2023/02/28 10:58:59;;;;;;;;;;;22.40;99.90;;;;;;6092365;23;19959;-79
2023/02/28 11:01:35;;;;;;;;;;;23.50;99.90;;;;;;6091207;23;20287;-79
2023/02/28 11:04:01;;;;;;;;;;;24.20;99.90;;;;;;6092075;23;19988;-79
2023/02/28 11:06:34;;;;;;;;;;;24.50;99.90;;;;;;6092008;23;20366;-79
2023/02/28 11:09:00;;;;;;;;;;;23.70;99.90;;;;;;6092230;23;19954;-80
2023/02/28 11:11:28;;;;;;;;;;;24.30;99.90;;;;;;6091924;23;20001;-80
2023/02/28 11:13:55;;;;;;;;;;;25.60;99.90;;;;;;6090827;23;19955;-82
2023/02/28 11:16:21;;;;;;;;;;;25.60;99.90;;;;;;6092572;23;19913;-82
2023/02/28 11:18:51;;;;;;;;;;;26.90;99.90;;;;;;6092793;23;19928;-81
2023/02/28 11:21:40;;;;;;;;;;;27.50;99.90;;;;;;6092144;23;19916;-81
2023/02/28 11:24:21;;;;;;;;;;;27.60;99.90;;;;;;6092724;23;20247;-85
2023/02/28 11:26:48;;;;;;;;;;;28.00;99.90;;;;;;6114704;23;19963;-85
2023/02/28 11:29:19;;;;;;;;;;;27.40;99.90;;;;;;6115191;23;19913;-84
2023/02/28 11:32:03;;;;;;;;;;;27.60;99.90;;;;;;6092067;23;19945;-83
2023/02/28 11:34:29;;;;;;;;;;;27.90;99.90;;;;;;6092529;23;19905;-83
2023/02/28 11:36:56;;;;;;;;;;;27.60;99.90;;;;;;6093106;23;19944;-82
2023/02/28 11:39:22;;;;;;;;;;;27.00;99.90;;;;;;6092574;23;19912;-83
2023/02/28 11:41:51;;;;;;;;;;;27.20;99.90;;;;;;6092071;23;19912;-83
2023/02/28 11:44:25;;;;;;;;;;;27.70;99.90;;;;;;6092450;23;19913;-83
2023/02/28 11:47:14;;;;;;;;;;;28.00;99.90;;;;;;6092251;23;19905;-84
2023/02/28 11:49:59;;;;;;;;;;;28.80;99.90;;;;;;6099549;23;19909;-84
2023/02/28 11:52:25;;;;;;;;;;;28.90;99.90;;;;;;6092062;23;19988;-86
2023/02/28 11:54:56;;;;;;;;;;;28.90;99.90;;;;;;6090911;23;19905;-85
2023/02/28 11:57:25;;;;;;;;;;;27.90;99.90;;;;;;6090547;23;19906;-83
2023/02/28 12:00:01;;;;;;;;;;;26.20;99.90;;;;;;6092555;23;19905;-83
2023/02/28 12:02:36;;;;;;;;;;;25.10;99.90;;;;;;6114501;23;20046;-83
2023/02/28 12:08:00;;;;;;;;;;;23.60;99.90;;;;;;6134802;22;19921;-83
2023/02/28 12:10:28;;;;;;;;;;;23.70;99.90;;;;;;6123560;23;19990;-84
2023/02/28 12:13:12;;;;;;;;;;;23.10;99.90;;;;;;6224809;23;19932;-84
2023/02/28 12:15:44;;;;;;;;;;;22.00;99.90;;;;;;6219700;22;19905;-83
2023/02/28 12:18:12;;;;;;;;;;;21.90;99.90;;;;;;6094493;23;20337;-84
2023/02/28 12:20:37;;;;;;;;;;;23.00;99.90;;;;;;6093427;23;20386;-83
2023/02/28 12:23:03;;;;;;;;;;;23.50;99.90;;;;;;6093850;23;19905;-84
2023/02/28 12:25:28;;;;;;;;;;;23.00;99.90;;;;;;6093482;23;19905;-84
2023/02/28 12:27:54;;;;;;;;;;;22.40;99.90;;;;;;6093514;23;19905;-85
2023/02/28 12:30:25;;;;;;;;;;;23.10;99.90;;;;;;6219418;23;19906;-84
2023/02/28 12:33:08;;;;;;;;;;;24.20;99.90;;;;;;6219143;23;19920;-83
2023/02/28 12:35:36;;;;;;;;;;;24.50;99.90;;;;;;6092839;23;19971;-82
2023/02/28 12:38:04;;;;;;;;;;;23.40;99.90;;;;;;6218431;23;19906;-83
2023/02/28 12:40:44;;;;;;;;;;;21.30;99.90;;;;;;6219374;23;19959;-84
2023/02/28 12:43:10;;;;;;;;;;;19.40;99.90;;;;;;6218461;23;19936;-84
2023/02/28 12:45:41;;;;;;;;;;;19.00;99.90;;;;;;6218313;22;19919;-83
2023/02/28 12:48:10;;;;;;;;;;;20.00;99.90;;;;;;6219041;23;19928;-83
2023/02/28 12:50:36;;;;;;;;;;;20.40;99.90;;;;;;6092598;23;19916;-84
2023/02/28 12:53:17;;;;;;;;;;;21.70;99.90;;;;;;6219009;23;20275;-83
2023/02/28 12:55:47;;;;;;;;;;;23.20;99.90;;;;;;6092741;23;20315;-83
2023/02/28 12:58:28;;;;;;;;;;;24.70;99.90;;;;;;6219160;23;19905;-84
2023/02/28 13:00:53;;;;;;;;;;;25.10;99.90;;;;;;6092859;23;20220;-83
2023/02/28 13:03:19;;;;;;;;;;;23.40;99.90;;;;;;6094849;23;19905;-84
2023/02/28 13:05:58;;;;;;;;;;;21.50;99.90;;;;;;6233177;22;19909;-84
2023/02/28 13:08:43;;;;;;;;;;;20.20;99.90;;;;;;6221580;23;20331;-83
2023/02/28 13:11:22;;;;;;;;;;;19.40;99.90;;;;;;6095743;23;19960;-85
2023/02/28 13:13:56;;;;;;;;;;;19.90;99.90;;;;;;6221287;23;19912;-84
2023/02/28 13:16:22;;;;;;;;;;;21.00;99.90;;;;;;6220227;22;20329;-85
2023/02/28 13:18:48;;;;;;;;;;;21.70;99.90;;;;;;6221123;23;19909;-85
2023/02/28 13:21:24;;;;;;;;;;;21.70;99.90;;;;;;6094168;23;20331;-84
2023/02/28 13:23:58;;;;;;;;;;;21.80;99.90;;;;;;6220683;23;19905;-84
2023/02/28 13:26:49;;;;;;;;;;;21.70;99.90;;;;;;6220383;22;19967;-84
2023/02/28 13:29:18;;;;;;;;;;;21.30;99.90;;;;;;6220194;23;19913;-84
2023/02/28 13:32:02;;;;;;;;;;;21.40;99.90;;;;;;6220282;23;19905;-83
2023/02/28 13:34:27;;;;;;;;;;;21.40;99.90;;;;;;6095472;23;20015;-84
2023/02/28 13:37:13;;;;;;;;;;;21.10;99.90;;;;;;6095390;23;19906;-83
2023/02/28 13:39:38;;;;;;;;;;;20.90;99.90;;;;;;6095338;23;19906;-83
2023/02/28 13:42:22;;;;;;;;;;;20.30;99.90;;;;;;6221380;23;20000;-84
2023/02/28 13:45:00;;;;;;;;;;;20.00;99.90;;;;;;6222061;23;19911;-83
2023/02/28 13:47:28;;;;;;;;;;;19.80;99.90;;;;;;6222072;23;19905;-83
2023/02/28 13:49:54;;;;;;;;;;;19.60;99.90;;;;;;6095539;23;19905;-83
2023/02/28 13:52:23;;;;;;;;;;;18.60;99.90;;;;;;6094341;23;19984;-83
2023/02/28 13:54:52;;;;;;;;;;;18.30;99.90;;;;;;6095006;23;19991;-83
2023/02/28 13:57:24;;;;;;;;;;;18.40;99.90;;;;;;6221027;22;19910;-83
2023/02/28 13:59:52;;;;;;;;;;;17.70;99.90;;;;;;6221104;23;19909;-83
2023/02/28 14:02:36;;;;;;;;;;;16.50;99.90;;;;;;6095388;23;19905;-83
2023/02/28 14:12:56;;;;;;;;;;;13.70;99.90;;;;;;6123039;23;19921;-81
2023/02/28 14:15:40;;;;;;;;;;;13.50;99.90;;;;;;6227097;23;19989;-81
2023/02/28 14:18:14;;;;;;;;;;;13.50;99.90;;;;;;6227377;23;19912;-82
2023/02/28 14:20:40;;;;;;;;;;;14.80;99.90;;;;;;6124682;23;19913;-81
2023/02/28 14:23:08;;;;;;;;;;;17.10;99.90;;;;;;6252325;22;19916;-82
2023/02/28 14:25:40;;;;;;;;;;;19.10;99.90;;;;;;6123735;23;19905;-81
2023/02/28 14:28:20;;;;;;;;;;;20.30;99.90;;;;;;6225996;23;20312;-80
2023/02/28 14:30:52;;;;;;;;;;;20.60;99.90;;;;;;6123972;23;19909;-82
2023/02/28 14:33:26;;;;;;;;;;;21.00;99.90;;;;;;6226494;23;19928;-80
2023/02/28 14:36:07;;;;;;;;;;;21.80;99.90;;;;;;6124233;23;20007;-81
2023/02/28 14:38:38;;;;;;;;;;;22.60;99.90;;;;;;6124244;23;19905;-82
2023/02/28 14:41:11;;;;;;;;;;;23.60;99.90;;;;;;6224930;23;19909;-82
2023/02/28 14:43:37;;;;;;;;;;;24.10;99.90;;;;;;6250444;22;19999;-83
2023/02/28 14:46:04;;;;;;;;;;;25.00;99.90;;;;;;6123208;23;19905;-81